Flight Track Log - Related Links

Times and Time Zones

All times are in EDT time to prevent confusion due to time zone crossing. See the TAM3377 flight status page for this flight to view local times or setup timezone preferences in your user account.

Time Position Orientation Groundspeed Altitude Reporting Facility
EDT Latitude Longitude Course Direction KTS MPH feet Rate Location/Type
Sun 11:31:32 AM -21.4180 -40.9910 217° Southwest 443 510 29,000  Level FlightAware ADS-B
Sun 11:32:17 AM -21.4870 -41.0470 217° Southwest 444 511 29,200 1,050 Climbing FlightAware ADS-B
Sun 11:32:52 AM -21.5510 -41.1010 218° Southwest 451 519 30,400 1,600 Climbing FlightAware ADS-B
Sun 11:34:17 AM -21.6890 -41.2150 218° Southwest 444 511 32,400 1,200 Climbing FlightAware ADS-B
Sun 11:35:32 AM -21.8120 -41.3180 218° Southwest 448 516 33,600 1,029 Climbing FlightAware ADS-B
Sun 11:36:02 AM -21.8620 -41.3600 218° Southwest 447 514 34,200 1,200 Climbing FlightAware ADS-B
Sun 11:37:17 AM -21.9820 -41.4610 218° Southwest 440 506 35,700 1,029 Climbing FlightAware ADS-B
Sun 11:37:47 AM -22.0310 -41.5030 218° Southwest 436 502 36,000 240 Climbing FlightAware ADS-B
Sun 11:38:32 AM -22.1020 -41.5630 218° Southwest 433 498 36,000  Level FlightAware ADS-B
Sun 11:39:27 AM -22.1910 -41.6380 218° Southwest 437 503 36,000  Level FlightAware ADS-B
Sun 11:40:37 AM -22.3010 -41.7320 218° Southwest 436 502 36,000  Level FlightAware ADS-B
Sun 11:41:07 AM -22.3490 -41.7720 218° Southwest 435 501 36,000  Level FlightAware ADS-B
Sun 11:41:52 AM -22.4280 -41.8250 212° Southwest 434 499 36,000  Level FlightAware ADS-B
Sun 11:42:27 AM -22.4850 -41.8640 212° Southwest 434 499 36,000  Level FlightAware ADS-B
Sun 11:43:12 AM -22.5630 -41.9190 213° Southwest 434 499 36,000  Level FlightAware ADS-B
Sun 11:43:47 AM -22.6220 -41.9590 212° Southwest 435 501 36,000  Level FlightAware ADS-B
Sun 11:44:27 AM -22.6900 -42.0060 213° Southwest 437 503 36,000  Level FlightAware ADS-B
Sun 11:45:12 AM -22.7570 -42.0740 223° Southwest 437 503 36,000  Level FlightAware ADS-B
Sun 11:45:52 AM -22.8030 -42.1460 235° Southwest 436 502 36,000  Level FlightAware ADS-B
Sun 11:46:32 AM -22.8360 -42.2260 246° West 436 502 36,000  Level FlightAware ADS-B
Sun 11:47:17 AM -22.8570 -42.3200 256° West 435 501 36,000  Level FlightAware ADS-B
Sun 11:47:57 AM -22.8730 -42.4060 259° West 433 498 36,000  Level FlightAware ADS-B
Sun 11:48:42 AM -22.8920 -42.5000 258° West 430 495 36,000  Level FlightAware ADS-B
Sun 11:49:22 AM -22.9080 -42.5840 258° West 428 493 36,000  Level FlightAware ADS-B
Sun 11:50:02 AM -22.9240 -42.6690 258° West 427 491 36,000  Level FlightAware ADS-B
Sun 11:50:47 AM -22.9430 -42.7640 258° West 428 493 36,000  Level FlightAware ADS-B
Sun 11:51:27 AM -22.9580 -42.8460 259° West 430 495 36,000  Level FlightAware ADS-B
Sun 11:52:12 AM -22.9780 -42.9420 257° West 430 495 36,000  Level FlightAware ADS-B
Sun 11:52:52 AM -22.9960 -43.0240 257° West 428 493 36,000  Level FlightAware ADS-B
Sun 11:53:32 AM -23.0150 -43.1080 256° West 426 490 36,000  Level FlightAware ADS-B
Sun 11:54:17 AM -23.0360 -43.2030 256° West 424 488 36,000  Level FlightAware ADS-B
Sun 11:54:57 AM -23.0540 -43.2870 257° West 421 484 36,000  Level FlightAware ADS-B
Sun 11:55:37 AM -23.0710 -43.3670 257° West 419 482 36,000  Level FlightAware ADS-B
Sun 11:56:22 AM -23.0910 -43.4560 256° West 415 478 36,000  Level FlightAware ADS-B
Sun 11:57:07 AM -23.1110 -43.5500 257° West 413 475 36,000  Level FlightAware ADS-B
Sun 11:57:47 AM -23.1280 -43.6310 257° West 413 475 36,000  Level FlightAware ADS-B
Sun 11:58:27 AM -23.1460 -43.7120 256° West 414 476 36,000  Level FlightAware ADS-B
Sun 11:59:07 AM -23.1630 -43.7930 257° West 415 478 36,000  Level FlightAware ADS-B
Sun 11:59:52 AM -23.1830 -43.8830 256° West 417 480 36,000  Level FlightAware ADS-B
Sun 12:00:32 PM -23.2000 -43.9660 257° West 418 481 36,000  Level FlightAware ADS-B
Sun 12:01:17 PM -23.2200 -44.0590 257° West 419 482 36,000  Level FlightAware ADS-B
Sun 12:01:57 PM -23.2370 -44.1400 257° West 419 482 36,000  Level FlightAware ADS-B
Sun 12:02:42 PM -23.2570 -44.2320 257° West 418 481 36,000  Level FlightAware ADS-B
Sun 12:03:22 PM -23.2740 -44.3150 257° West 418 481 36,000  Level FlightAware ADS-B
Sun 12:04:07 PM -23.2930 -44.4050 257° West 418 481 36,000  Level FlightAware ADS-B
Sun 12:04:47 PM -23.3110 -44.4870 257° West 418 481 36,000  Level FlightAware ADS-B
Sun 12:05:27 PM -23.3280 -44.5690 257° West 420 483 36,000  Level FlightAware ADS-B
Sun 12:06:12 PM -23.3470 -44.6630 258° West 421 484 36,000  Level FlightAware ADS-B
Sun 12:06:52 PM -23.3650 -44.7470 257° West 421 484 36,000  Level FlightAware ADS-B
Sun 12:07:42 PM -23.3820 -44.8280 257° West 420 483 36,000  Level FlightAware ADS-B
Sun 12:08:22 PM -23.4000 -44.9150 257° West 419 482 36,000  Level FlightAware ADS-B
Sun 12:09:12 PM -23.4200 -45.0110 257° West 418 481 36,000 -67 Level FlightAware ADS-B
Sun 12:09:52 PM -23.4380 -45.0980 257° West 417 480 35,900 -1,200 Descending FlightAware ADS-B
Sun 12:10:37 PM -23.4580 -45.1920 257° West 413 475 34,300 -2,259 Descending FlightAware ADS-B
Sun 12:11:17 PM -23.4760 -45.2740 257° West 409 471 32,700 -2,400 Descending FlightAware ADS-B
Sun 12:11:57 PM -23.4930 -45.3540 257° West 410 472 31,100 -2,329 Descending FlightAware ADS-B
Sun 12:12:42 PM -23.5110 -45.4430 258° West 403 464 29,400 -2,188 Descending FlightAware ADS-B
Sun 12:13:22 PM -23.5270 -45.5240 258° West 398 458 28,000 -2,100 Descending FlightAware ADS-B
Sun 12:14:02 PM -23.5420 -45.5950 257° West 393 452 26,600 -2,100 Descending FlightAware ADS-B
Sun 12:14:42 PM -23.5580 -45.6750 258° West 390 449 25,200 -1,200 Descending FlightAware ADS-B
Sun 12:15:27 PM -23.5760 -45.7640 258° West 425 489 24,900 -1,835 Descending FlightAware ADS-B
Sun 12:16:07 PM -23.5940 -45.8540 258° West 448 516 22,600 -3,467 Descending FlightAware ADS-B
Sun 12:16:57 PM -23.6130 -45.9660 259° West 446 513 19,700 -3,459 Descending FlightAware ADS-B
Sun 12:17:32 PM -23.6240 -46.0430 261° West 440 506 17,700 -3,388 Descending FlightAware ADS-B
Sun 12:18:22 PM -23.6380 -46.1500 262° West 435 501 14,900 -3,133 Descending FlightAware ADS-B
Sun 12:19:02 PM -23.6500 -46.2380 262° West 419 482 13,000 -2,175 Descending FlightAware ADS-B
Sun 12:19:42 PM -23.6620 -46.3200 261° West 388 447 12,000 -1,371 Descending FlightAware ADS-B
Sun 12:20:12 PM -23.6460 -46.3800 286° West 352 405 11,400 -1,000 Descending FlightAware ADS-B
Sun 12:20:42 PM -23.6060 -46.4050 330° Northwest 329 379 11,000 -343 Descending FlightAware ADS-B
Sun 12:21:22 PM -23.5520 -46.4220 344° North 299 344 11,000 -375 Level FlightAware ADS-B
Sun 12:22:02 PM -23.5050 -46.4390 342° North 280 322 10,500 -857 Descending FlightAware ADS-B
Sun 12:22:32 PM -23.4660 -46.4540 341° North 268 308 10,000 -982 Descending FlightAware ADS-B
Sun 12:22:57 PM -23.4410 -46.4640 340° North 261 300 9,600 -1,200 Descending FlightAware ADS-B
Sun 12:23:27 PM -23.4070 -46.4760 342° North 258 297 8,900 -1,467 Descending FlightAware ADS-B
Sun 12:23:42 PM -23.3900 -46.4820 342° North 257 296 8,500 -1,067 Descending FlightAware ADS-B
Sun 12:24:12 PM -23.3560 -46.4940 342° North 241 277 8,100 -667 Descending FlightAware ADS-B
Sun 12:24:27 PM -23.3390 -46.4980 348° North 242 278 8,000 -857 Descending FlightAware ADS-B
Sun 12:24:47 PM -23.3210 -46.4940 12° North 242 278 7,600 -1,200 Descending FlightAware ADS-B
Sun 12:24:57 PM -23.3140 -46.4890 33° Northeast 246 283 7,400 -1,029 Descending FlightAware ADS-B
Sun 12:25:22 PM -23.3010 -46.4610 63° Northeast 247 284 7,000 -1,200 Descending FlightAware ADS-B
Sun 12:25:47 PM -23.2900 -46.4330 67° East 247 284 6,400 -1,309 Descending FlightAware ADS-B
Sun 12:26:17 PM -23.2770 -46.3980 68° East 243 280 5,800 -800 Descending FlightAware ADS-B
Sun 12:26:32 PM -23.2710 -46.3750 74° East 232 267 5,800 -150 Level FlightAware ADS-B
Sun 12:26:57 PM -23.2770 -46.3510 105° East 227 261 5,700 -360 Descending FlightAware ADS-B
Sun 12:27:22 PM -23.2860 -46.3260 111° Southeast 215 247 5,500 -480 Descending FlightAware ADS-B
Sun 12:27:47 PM -23.2950 -46.3000 111° Southeast 208 239 5,300 -218 Descending FlightAware ADS-B
Sun 12:28:17 PM -23.3040 -46.2740 111° Southeast 206 237 5,300  Level FlightAware ADS-B
Sun 12:28:47 PM -23.3230 -46.2470 127° Southeast 214 246 5,300 -150 Level FlightAware ADS-B
Sun 12:28:57 PM -23.3290 -46.2460 171° South 212 244 5,200 -800 Descending FlightAware ADS-B
Sun 12:29:32 PM -23.3620 -46.2680 211° Southwest 195 224 4,700 -554 Descending FlightAware ADS-B
Sun 12:30:02 PM -23.3820 -46.2870 221° Southwest 191 220 4,600 -150 Descending FlightAware ADS-B
Sun 12:30:12 PM -23.3870 -46.2960 239° Southwest 194 223 4,600  Level FlightAware ADS-B
Sun 12:30:42 PM -23.3940 -46.3230 254° West 191 220 4,600 -400 Level FlightAware ADS-B
Sun 12:31:12 PM -23.4020 -46.3510 253° West 183 211 4,200 -873 Descending FlightAware ADS-B
Sun 12:31:37 PM -23.4080 -46.3720 253° West 166 191 3,800 -750 Descending FlightAware ADS-B
Sun 12:31:52 PM -23.4110 -46.3830 253° West 157 181 3,700 -800 Descending FlightAware ADS-B
Sun 12:32:22 PM -23.4170 -46.4060 254° West 148 170 3,200 -900 Descending FlightAware ADS-B
Sun 12:32:32 PM -23.4190 -46.4130 253° West 143 165 3,100 -600 Descending FlightAware ADS-B
Sun 12:33:02 PM -23.4250 -46.4350 253° West 141 162 2,800 -700 Descending FlightAware ADS-B
Sun 12:33:32 PM -23.4300 -46.4540 254° West 139 160 2,400 -686 Descending FlightAware ADS-B
Sun 12:33:37 PM -23.4310 -46.4570 250° West 140 161 2,400  Level FlightAware ADS-B

Login

Don't have an account? Register now (free) for customized features, flight alerts, and more!